Basel, Switzerland

2:51 AM CET on December 27, 2014 (GMT +0100)
Basel | Change Station
CLOSE
Current Station
Personal Weather Station
Location: Basel, BASEL-STADT
Elevation: 853 ft
Nearby Weather Stations

Elev 853 ft 47.57 °N, 7.58 °E | Updated 8 seconds ago

Clear
Clear
32.7 °F
Feels Like 33 °F
N
1.0
Wind Variable Wind from South
Gusts 3.0 mph

Today
High -- | Low -- °F
--% Chance of Precip.
Yesterday
High -- | Low -- °F
Precip. -- in
8:17 AM 4:44 PM
Waxing Crescent, 31% visible
Pressure 30.06 in
Visibility 6.2 miles
Clouds
Windchill 33 °F
Dew Point 27 °F
Humidity 80%
Rainfall 0.00 in
Snow Depth Not available.
UV 0.0 out of 12
Pollen Not available.
Air Quality Not available.
Flu Activity Not available.
METAR LFSB 270130Z AUTO 17005KT 9999 NSC 00/M01 Q1018

More Conditions Fewer Conditions

Pressure 30.06 in
Visibility 6.2 miles
Clouds
Windchill 33 °F
Dew Point 27 °F
Humidity 80%
Rainfall 0.00 in
Snow Depth Not available.
UV 0.0 out of 12
Pollen Not available.
Air Quality Not available.
Flu Activity Not available.
METAR LFSB 270130Z AUTO 17005KT 9999 NSC 00/M01 Q1018

More Conditions Fewer Conditions

10-Day Weather Forecast

Almanac

Astronomy

Dec. 27, 2014 Rise Set
Actual Time
Civil Twilight
Nautical Twilight
Astronomical Twilight
Moon
Length of Visible Light
Length of Day
Tomorrow will be .
, % of the Moon is Illuminated

Today's Extremes

Country Highs Country Lows

Community

WunderPhotos

Upload Photos

1,780,804 photos uploaded!

WunderBlogs® & News

Nearby

Air Quality

  Air Quality AQ Index Pollutant
Not available.

Snow Depth

Station Depth Elevation

Earthquake Activity

City Distance Mag. Time & Date
Minimum magnitude displayed is 2.5.

Coastal Water Temperatures

Place Temperature

Nearby Weather Stations